sensor_id;sensor_type;location;lat;lon;timestamp;pressure;altitude;pressure_sealevel;temperature;humidity
55914;BME280;58179;48.776;9.124;2024-03-23T00:55:34;96635.31;;;8.32;100.00
55914;BME280;58179;48.776;9.124;2024-03-23T00:58:00;96630.28;;;8.30;100.00
55914;BME280;58179;48.776;9.124;2024-03-23T01:00:26;96629.72;;;8.28;100.00
55914;BME280;58179;48.776;9.124;2024-03-23T01:02:53;96631.84;;;8.26;100.00
55914;BME280;58179;48.776;9.124;2024-03-23T01:05:19;96632.34;;;8.23;100.00
55914;BME280;58179;48.776;9.124;2024-03-23T01:07:45;96627.63;;;8.25;100.00
55914;BME280;58179;48.776;9.124;2024-03-23T01:10:11;96630.00;;;8.27;100.00
55914;BME280;58179;48.776;9.124;2024-03-23T01:12:39;96630.28;;;8.30;100.00
55914;BME280;58179;48.776;9.124;2024-03-23T01:15:06;96614.44;;;8.30;100.00
55914;BME280;58179;48.776;9.124;2024-03-23T01:17:32;96599.69;;;8.29;100.00
55914;BME280;58179;48.776;9.124;2024-03-23T01:19:58;96603.16;;;8.35;100.00
55914;BME280;58179;48.776;9.124;2024-03-23T01:22:24;96600.53;;;8.35;100.00
55914;BME280;58179;48.776;9.124;2024-03-23T01:24:50;96610.34;;;8.44;100.00
55914;BME280;58179;48.776;9.124;2024-03-23T01:27:16;96597.97;;;8.50;100.00
55914;BME280;58179;48.776;9.124;2024-03-23T01:29:44;96600.41;;;8.62;100.00
55914;BME280;58179;48.776;9.124;2024-03-23T01:32:10;96593.84;;;8.74;100.00
55914;BME280;58179;48.776;9.124;2024-03-23T01:34:36;96584.94;;;8.85;100.00
55914;BME280;58179;48.776;9.124;2024-03-23T01:37:03;96590.22;;;8.90;100.00
55914;BME280;58179;48.776;9.124;2024-03-23T01:39:29;96579.16;;;8.99;100.00
55914;BME280;58179;48.776;9.124;2024-03-23T01:41:55;96579.97;;;9.04;100.00
55914;BME280;58179;48.776;9.124;2024-03-23T01:44:21;96574.94;;;9.03;100.00
55914;BME280;58179;48.776;9.124;2024-03-23T01:46:49;96567.56;;;9.05;100.00
55914;BME280;58179;48.776;9.124;2024-03-23T01:49:15;96569.94;;;9.11;100.00
55914;BME280;58179;48.776;9.124;2024-03-23T01:51:42;96555.16;;;9.10;100.00
55914;BME280;58179;48.776;9.124;2024-03-23T01:54:09;96548.84;;;9.21;100.00
55914;BME280;58179;48.776;9.124;2024-03-23T01:56:36;96541.19;;;9.20;100.00
55914;BME280;58179;48.776;9.124;2024-03-23T01:59:02;96541.19;;;9.25;100.00
55914;BME280;58179;48.776;9.124;2024-03-23T02:01:28;96533.53;;;9.23;100.00
55914;BME280;58179;48.776;9.124;2024-03-23T02:03:57;96528.25;;;9.23;100.00
55914;BME280;58179;48.776;9.124;2024-03-23T02:06:23;96524.03;;;9.27;100.00
55914;BME280;58179;48.776;9.124;2024-03-23T02:08:50;96531.41;;;9.25;100.00
55914;BME280;58179;48.776;9.124;2024-03-23T02:11:16;96535.09;;;9.19;100.00
55914;BME280;58179;48.776;9.124;2024-03-23T02:13:42;96533.53;;;9.13;100.00
55914;BME280;58179;48.776;9.124;2024-03-23T02:16:09;96532.47;;;9.09;100.00
55914;BME280;58179;48.776;9.124;2024-03-23T02:18:35;96523.72;;;9.04;100.00
55914;BME280;58179;48.776;9.124;2024-03-23T02:21:03;96522.13;;;9.03;100.00
55914;BME280;58179;48.776;9.124;2024-03-23T02:23:31;96513.69;;;8.96;100.00
55914;BME280;58179;48.776;9.124;2024-03-23T02:25:57;96509.44;;;8.89;100.00
55914;BME280;58179;48.776;9.124;2024-03-23T02:28:23;96511.84;;;8.86;100.00
55914;BME280;58179;48.776;9.124;2024-03-23T02:30:49;96506.81;;;8.79;100.00
55914;BME280;58179;48.776;9.124;2024-03-23T02:33:16;96513.66;;;8.80;100.00
55914;BME280;58179;48.776;9.124;2024-03-23T02:35:43;96511.56;;;8.77;100.00
55914;BME280;58179;48.776;9.124;2024-03-23T02:38:09;96512.59;;;8.71;100.00
55914;BME280;58179;48.776;9.124;2024-03-23T02:40:36;96513.91;;;8.69;100.00
55914;BME280;58179;48.776;9.124;2024-03-23T02:43:03;96515.50;;;8.70;100.00
55914;BME280;58179;48.776;9.124;2024-03-23T02:45:29;96503.88;;;8.71;100.00
55914;BME280;58179;48.776;9.124;2024-03-23T02:47:55;96501.50;;;8.74;100.00
55914;BME280;58179;48.776;9.124;2024-03-23T02:50:22;96499.41;;;8.71;100.00
55914;BME280;58179;48.776;9.124;2024-03-23T02:52:49;96491.22;;;8.73;100.00
55914;BME280;58179;48.776;9.124;2024-03-23T02:55:15;96484.88;;;8.74;100.00
55914;BME280;58179;48.776;9.124;2024-03-23T02:57:43;96481.19;;;8.70;100.00
55914;BME280;58179;48.776;9.124;2024-03-23T03:00:09;96482.78;;;8.71;100.00
55914;BME280;58179;48.776;9.124;2024-03-23T03:02:36;96483.03;;;8.69;100.00
55914;BME280;58179;48.776;9.124;2024-03-23T03:05:04;96473.81;;;8.72;100.00
55914;BME280;58179;48.776;9.124;2024-03-23T03:07:31;96473.53;;;8.73;100.00
55914;BME280;58179;48.776;9.124;2024-03-23T03:09:57;96464.06;;;8.77;100.00
55914;BME280;58179;48.776;9.124;2024-03-23T03:12:23;96470.91;;;8.78;100.00
55914;BME280;58179;48.776;9.124;2024-03-23T03:14:50;96466.94;;;8.76;100.00
55914;BME280;58179;48.776;9.124;2024-03-23T03:17:16;96466.44;;;8.79;100.00
55914;BME280;58179;48.776;9.124;2024-03-23T03:19:42;96467.19;;;8.74;100.00
55914;BME280;58179;48.776;9.124;2024-03-23T03:22:09;96461.94;;;8.64;100.00
55914;BME280;58179;48.776;9.124;2024-03-23T03:24:35;96468.75;;;8.60;100.00
55914;BME280;58179;48.776;9.124;2024-03-23T03:27:01;96460.59;;;8.57;100.00
55914;BME280;58179;48.776;9.124;2024-03-23T03:29:29;96449.47;;;8.49;100.00
55914;BME280;58179;48.776;9.124;2024-03-23T03:32:02;96456.88;;;8.47;100.00
55914;BME280;58179;48.776;9.124;2024-03-23T03:34:29;96450.81;;;8.42;100.00
55914;BME280;58179;48.776;9.124;2024-03-23T03:36:56;96451.31;;;8.39;100.00
55914;BME280;58179;48.776;9.124;2024-03-23T03:39:22;96448.94;;;8.37;100.00
55914;BME280;58179;48.776;9.124;2024-03-23T03:41:48;96443.06;;;8.30;100.00
55914;BME280;58179;48.776;9.124;2024-03-23T03:44:14;96445.69;;;8.25;100.00
55914;BME280;58179;48.776;9.124;2024-03-23T03:46:40;96439.09;;;8.18;100.00
55914;BME280;58179;48.776;9.124;2024-03-23T03:49:08;96432.97;;;8.12;100.00
55914;BME280;58179;48.776;9.124;2024-03-23T03:51:34;96425.59;;;8.09;100.00
55914;BME280;58179;48.776;9.124;2024-03-23T03:54:00;96418.47;;;8.04;100.00
55914;BME280;58179;48.776;9.124;2024-03-23T03:56:27;96421.63;;;8.01;100.00
55914;BME280;58179;48.776;9.124;2024-03-23T03:58:53;96411.59;;;7.98;100.00
55914;BME280;58179;48.776;9.124;2024-03-23T04:01:23;96396.56;;;7.99;100.00
55914;BME280;58179;48.776;9.124;2024-03-23T04:03:49;96388.16;;;7.97;100.00
55914;BME280;58179;48.776;9.124;2024-03-23T04:06:20;96378.13;;;7.94;100.00
55914;BME280;58179;48.776;9.124;2024-03-23T04:08:46;96383.88;;;7.86;100.00
55914;BME280;58179;48.776;9.124;2024-03-23T04:11:12;96370.72;;;7.86;100.00
55914;BME280;58179;48.776;9.124;2024-03-23T04:13:39;96359.63;;;7.84;100.00
55914;BME280;58179;48.776;9.124;2024-03-23T04:16:07;96353.56;;;7.83;100.00
55914;BME280;58179;48.776;9.124;2024-03-23T04:18:35;96364.41;;;7.87;100.00
55914;BME280;58179;48.776;9.124;2024-03-23T04:21:01;96365.19;;;7.87;100.00
55914;BME280;58179;48.776;9.124;2024-03-23T04:23:29;96369.41;;;7.93;100.00
55914;BME280;58179;48.776;9.124;2024-03-23T04:25:55;96369.44;;;7.98;100.00
55914;BME280;58179;48.776;9.124;2024-03-23T04:28:21;96383.94;;;8.01;100.00
55914;BME280;58179;48.776;9.124;2024-03-23T04:30:48;96400.56;;;8.06;100.00
55914;BME280;58179;48.776;9.124;2024-03-23T04:33:14;96419.56;;;8.13;100.00
55914;BME280;58179;48.776;9.124;2024-03-23T04:35:41;96451.22;;;8.24;100.00
55914;BME280;58179;48.776;9.124;2024-03-23T04:38:07;96435.19;;;8.35;100.00
55914;BME280;58179;48.776;9.124;2024-03-23T04:40:34;96419.16;;;8.47;100.00
55914;BME280;58179;48.776;9.124;2024-03-23T04:43:00;96415.75;;;8.57;100.00
55914;BME280;58179;48.776;9.124;2024-03-23T04:45:27;96409.16;;;8.64;100.00
55914;BME280;58179;48.776;9.124;2024-03-23T04:47:53;96419.97;;;8.68;100.00
55914;BME280;58179;48.776;9.124;2024-03-23T04:50:19;96419.97;;;8.73;100.00
55914;BME280;58179;48.776;9.124;2024-03-23T04:52:45;96434.78;;;8.79;100.00
55914;BME280;58179;48.776;9.124;2024-03-23T04:55:11;96433.97;;;8.83;100.00
55914;BME280;58179;48.776;9.124;2024-03-23T04:57:39;96435.81;;;8.88;100.00
55914;BME280;58179;48.776;9.124;2024-03-23T05:00:06;96431.63;;;8.92;100.00
55914;BME280;58179;48.776;9.124;2024-03-23T05:02:43;96447.19;;;8.93;100.00
55914;BME280;58179;48.776;9.124;2024-03-23T05:05:09;96446.66;;;8.91;100.00
55914;BME280;58179;48.776;9.124;2024-03-23T05:07:36;96445.06;;;8.90;100.00
55914;BME280;58179;48.776;9.124;2024-03-23T05:10:02;96451.94;;;8.97;100.00
55914;BME280;58179;48.776;9.124;2024-03-23T05:12:29;96451.41;;;8.95;100.00
55914;BME280;58179;48.776;9.124;2024-03-23T05:14:56;96456.16;;;9.03;100.00
55914;BME280;58179;48.776;9.124;2024-03-23T05:17:22;96458.78;;;8.98;100.00
55914;BME280;58179;48.776;9.124;2024-03-23T05:19:48;96465.13;;;8.86;100.00
55914;BME280;58179;48.776;9.124;2024-03-23T05:22:15;96464.31;;;8.81;100.00
55914;BME280;58179;48.776;9.124;2024-03-23T05:24:41;96457.19;;;8.76;100.00
55914;BME280;58179;48.776;9.124;2024-03-23T05:27:07;96454.28;;;8.78;100.00
55914;BME280;58179;48.776;9.124;2024-03-23T05:29:33;96454.00;;;8.69;100.00
55914;BME280;58179;48.776;9.124;2024-03-23T05:32:01;96460.06;;;8.65;100.00
55914;BME280;58179;48.776;9.124;2024-03-23T05:34:27;96458.75;;;8.67;100.00
55914;BME280;58179;48.776;9.124;2024-03-23T05:36:54;96457.69;;;8.63;100.00
55914;BME280;58179;48.776;9.124;2024-03-23T05:39:21;96465.06;;;8.56;100.00
55914;BME280;58179;48.776;9.124;2024-03-23T05:41:48;96473.75;;;8.51;100.00
55914;BME280;58179;48.776;9.124;2024-03-23T05:44:14;96493.78;;;8.47;100.00
55914;BME280;58179;48.776;9.124;2024-03-23T05:46:41;96503.81;;;8.45;100.00
55914;BME280;58179;48.776;9.124;2024-03-23T05:49:08;96511.72;;;8.45;100.00
55914;BME280;58179;48.776;9.124;2024-03-23T05:51:35;96537.84;;;8.47;100.00
55914;BME280;58179;48.776;9.124;2024-03-23T05:54:01;96528.56;;;8.39;100.00
55914;BME280;58179;48.776;9.124;2024-03-23T05:56:27;96535.41;;;8.35;100.00
55914;BME280;58179;48.776;9.124;2024-03-23T05:58:53;96532.16;;;8.28;100.00
55914;BME280;58179;48.776;9.124;2024-03-23T06:01:19;96531.66;;;8.26;100.00
55914;BME280;58179;48.776;9.124;2024-03-23T06:03:46;96531.91;;;8.25;100.00
55914;BME280;58179;48.776;9.124;2024-03-23T06:06:13;96522.34;;;8.13;100.00
55914;BME280;58179;48.776;9.124;2024-03-23T06:08:40;96528.38;;;8.04;100.00
55914;BME280;58179;48.776;9.124;2024-03-23T06:11:07;96539.97;;;8.03;100.00
55914;BME280;58179;48.776;9.124;2024-03-23T06:13:33;96531.75;;;7.94;100.00
55914;BME280;58179;48.776;9.124;2024-03-23T06:15:59;96549.09;;;7.90;100.00
55914;BME280;58179;48.776;9.124;2024-03-23T06:18:26;96556.81;;;7.97;100.00
55914;BME280;58179;48.776;9.124;2024-03-23T06:20:52;96544.09;;;7.89;100.00
55914;BME280;58179;48.776;9.124;2024-03-23T06:23:20;96533.00;;;7.82;100.00
55914;BME280;58179;48.776;9.124;2024-03-23T06:25:46;96546.63;;;7.73;100.00
55914;BME280;58179;48.776;9.124;2024-03-23T06:28:12;96548.97;;;7.70;100.00
55914;BME280;58179;48.776;9.124;2024-03-23T06:30:38;96562.94;;;7.70;100.00
55914;BME280;58179;48.776;9.124;2024-03-23T06:33:05;96582.66;;;7.68;100.00
55914;BME280;58179;48.776;9.124;2024-03-23T06:35:31;96592.16;;;7.69;100.00
55914;BME280;58179;48.776;9.124;2024-03-23T06:37:57;96597.88;;;7.61;100.00
55914;BME280;58179;48.776;9.124;2024-03-23T06:40:28;96599.47;;;7.62;100.00
55914;BME280;58179;48.776;9.124;2024-03-23T06:42:54;96600.00;;;7.59;100.00
55914;BME280;58179;48.776;9.124;2024-03-23T06:45:20;96621.59;;;7.61;100.00
55914;BME280;58179;48.776;9.124;2024-03-23T06:47:49;96606.56;;;7.56;100.00
55914;BME280;58179;48.776;9.124;2024-03-23T06:50:15;96635.91;;;7.70;100.00
55914;BME280;58179;48.776;9.124;2024-03-23T06:52:41;96635.13;;;7.74;100.00
55914;BME280;58179;48.776;9.124;2024-03-23T06:55:08;96624.91;;;7.78;100.00
55914;BME280;58179;48.776;9.124;2024-03-23T06:57:35;96626.94;;;7.71;100.00
55914;BME280;58179;48.776;9.124;2024-03-23T07:00:02;96640.91;;;7.71;100.00
55914;BME280;58179;48.776;9.124;2024-03-23T07:02:28;96654.78;;;7.62;100.00
55914;BME280;58179;48.776;9.124;2024-03-23T07:04:54;96651.66;;;7.65;100.00
55914;BME280;58179;48.776;9.124;2024-03-23T07:07:21;96663.59;;;7.72;100.00
55914;BME280;58179;48.776;9.124;2024-03-23T07:09:47;96667.28;;;7.76;100.00
55914;BME280;58179;48.776;9.124;2024-03-23T07:12:13;96675.78;;;7.84;100.00
55914;BME280;58179;48.776;9.124;2024-03-23T07:14:41;96699.81;;;7.87;100.00
55914;BME280;58179;48.776;9.124;2024-03-23T07:17:07;96680.53;;;7.82;100.00
55914;BME280;58179;48.776;9.124;2024-03-23T07:19:33;96686.91;;;7.91;100.00
55914;BME280;58179;48.776;9.124;2024-03-23T07:21:59;96684.66;;;8.04;100.00
55914;BME280;58179;48.776;9.124;2024-03-23T07:24:25;96692.63;;;8.09;100.00
55914;BME280;58179;48.776;9.124;2024-03-23T07:26:52;96705.22;;;8.34;100.00
55914;BME280;58179;48.776;9.124;2024-03-23T07:29:20;96704.16;;;8.35;100.00
55914;BME280;58179;48.776;9.124;2024-03-23T07:31:47;96688.09;;;8.37;100.00
55914;BME280;58179;48.776;9.124;2024-03-23T07:34:13;96694.38;;;8.31;100.00
55914;BME280;58179;48.776;9.124;2024-03-23T07:36:40;96696.41;;;8.24;100.00
55914;BME280;58179;48.776;9.124;2024-03-23T07:39:06;96721.41;;;8.16;100.00
55914;BME280;58179;48.776;9.124;2024-03-23T07:41:33;96717.66;;;8.12;100.00
55914;BME280;58179;48.776;9.124;2024-03-23T07:44:01;96717.06;;;8.05;100.00
55914;BME280;58179;48.776;9.124;2024-03-23T07:46:27;96719.19;;;8.03;100.00
55914;BME280;58179;48.776;9.124;2024-03-23T07:48:55;96742.84;;;7.98;100.00
55914;BME280;58179;48.776;9.124;2024-03-23T07:51:21;96735.66;;;7.88;100.00
55914;BME280;58179;48.776;9.124;2024-03-23T07:53:48;96754.00;;;7.78;100.00
55914;BME280;58179;48.776;9.124;2024-03-23T07:56:15;96762.28;;;7.65;100.00
55914;BME280;58179;48.776;9.124;2024-03-23T07:58:42;96749.44;;;7.47;100.00
55914;BME280;58179;48.776;9.124;2024-03-23T08:01:10;96751.66;;;7.33;100.00
55914;BME280;58179;48.776;9.124;2024-03-23T08:03:37;96749.78;;;7.28;100.00
55914;BME280;58179;48.776;9.124;2024-03-23T08:06:12;96746.53;;;7.21;100.00
55914;BME280;58179;48.776;9.124;2024-03-23T08:08:38;96771.72;;;7.17;100.00
55914;BME280;58179;48.776;9.124;2024-03-23T08:11:05;96791.59;;;7.08;100.00
55914;BME280;58179;48.776;9.124;2024-03-23T08:13:31;96792.41;;;7.09;100.00
55914;BME280;58179;48.776;9.124;2024-03-23T08:15:58;96809.63;;;7.16;100.00
55914;BME280;58179;48.776;9.124;2024-03-23T08:18:24;96795.88;;;7.14;100.00
55914;BME280;58179;48.776;9.124;2024-03-23T08:20:57;96776.25;;;7.22;100.00
55914;BME280;58179;48.776;9.124;2024-03-23T08:23:25;96791.34;;;7.26;100.00
55914;BME280;58179;48.776;9.124;2024-03-23T08:25:52;96809.34;;;7.34;100.00
55914;BME280;58179;48.776;9.124;2024-03-23T08:28:19;96827.25;;;7.37;100.00
55914;BME280;58179;48.776;9.124;2024-03-23T08:30:45;96833.94;;;7.45;100.00
55914;BME280;58179;48.776;9.124;2024-03-23T08:33:11;96851.47;;;7.56;100.00
55914;BME280;58179;48.776;9.124;2024-03-23T08:35:39;96857.03;;;7.60;100.00
55914;BME280;58179;48.776;9.124;2024-03-23T08:38:06;96867.84;;;7.80;100.00
55914;BME280;58179;48.776;9.124;2024-03-23T08:40:34;96871.69;;;7.94;100.00
55914;BME280;58179;48.776;9.124;2024-03-23T08:43:00;96871.31;;;8.07;100.00
55914;BME280;58179;48.776;9.124;2024-03-23T08:45:26;96874.41;;;8.26;100.00
55914;BME280;58179;48.776;9.124;2024-03-23T08:47:52;96872.09;;;8.57;100.00
55914;BME280;58179;48.776;9.124;2024-03-23T08:50:18;96868.50;;;8.73;100.00
55914;BME280;58179;48.776;9.124;2024-03-23T08:52:45;96860.19;;;8.86;100.00
55914;BME280;58179;48.776;9.124;2024-03-23T08:55:11;96845.28;;;8.70;100.00
55914;BME280;58179;48.776;9.124;2024-03-23T08:57:38;96854.63;;;8.82;100.00
55914;BME280;58179;48.776;9.124;2024-03-23T09:00:06;96856.56;;;8.97;100.00
55914;BME280;58179;48.776;9.124;2024-03-23T09:02:34;96881.47;;;9.11;100.00
55914;BME280;58179;48.776;9.124;2024-03-23T09:05:00;96886.25;;;9.09;100.00
55914;BME280;58179;48.776;9.124;2024-03-23T09:07:30;96891.13;;;8.96;100.00
55914;BME280;58179;48.776;9.124;2024-03-23T09:09:56;96911.44;;;8.95;100.00
55914;BME280;58179;48.776;9.124;2024-03-23T09:12:22;96909.75;;;8.79;100.00
55914;BME280;58179;48.776;9.124;2024-03-23T09:14:51;96914.34;;;8.62;100.00
55914;BME280;58179;48.776;9.124;2024-03-23T09:17:17;96931.03;;;8.40;100.00
55914;BME280;58179;48.776;9.124;2024-03-23T09:19:44;96941.75;;;8.34;100.00
55914;BME280;58179;48.776;9.124;2024-03-23T09:22:10;96938.28;;;8.55;100.00
55914;BME280;58179;48.776;9.124;2024-03-23T09:24:36;96966.59;;;8.91;100.00
55914;BME280;58179;48.776;9.124;2024-03-23T09:27:03;96937.78;;;9.17;100.00
55914;BME280;58179;48.776;9.124;2024-03-23T09:29:29;96937.72;;;9.49;100.00
55914;BME280;58179;48.776;9.124;2024-03-23T09:31:57;96941.94;;;9.92;100.00
55914;BME280;58179;48.776;9.124;2024-03-23T09:34:23;96934.34;;;10.10;100.00
55914;BME280;58179;48.776;9.124;2024-03-23T09:36:52;96926.75;;;10.24;100.00
55914;BME280;58179;48.776;9.124;2024-03-23T09:39:18;96924.16;;;10.29;100.00
55914;BME280;58179;48.776;9.124;2024-03-23T09:41:45;96926.22;;;10.17;100.00
55914;BME280;58179;48.776;9.124;2024-03-23T09:44:11;96930.59;;;10.01;100.00
55914;BME280;58179;48.776;9.124;2024-03-23T09:46:37;96923.16;;;9.93;100.00
55914;BME280;58179;48.776;9.124;2024-03-23T09:49:07;96919.16;;;9.81;100.00
55914;BME280;58179;48.776;9.124;2024-03-23T09:51:36;96927.09;;;9.81;100.00
55914;BME280;58179;48.776;9.124;2024-03-23T09:54:02;96927.69;;;9.98;100.00
55914;BME280;58179;48.776;9.124;2024-03-23T09:56:28;96946.63;;;10.32;100.00
55914;BME280;58179;48.776;9.124;2024-03-23T09:59:01;96955.44;;;10.58;100.00
55914;BME280;58179;48.776;9.124;2024-03-23T10:01:27;96927.59;;;10.40;100.00
55914;BME280;58179;48.776;9.124;2024-03-23T10:03:55;96932.25;;;10.13;100.00
55914;BME280;58179;48.776;9.124;2024-03-23T10:06:23;96926.94;;;9.55;100.00
55914;BME280;58179;48.776;9.124;2024-03-23T10:08:51;96931.03;;;9.36;100.00
55914;BME280;58179;48.776;9.124;2024-03-23T10:11:18;96930.31;;;9.46;100.00
55914;BME280;58179;48.776;9.124;2024-03-23T10:13:45;96928.28;;;9.58;100.00
55914;BME280;58179;48.776;9.124;2024-03-23T10:16:21;96929.53;;;9.45;100.00
55914;BME280;58179;48.776;9.124;2024-03-23T10:18:49;96924.06;;;9.20;100.00
55914;BME280;58179;48.776;9.124;2024-03-23T10:21:16;96911.28;;;9.07;100.00
55914;BME280;58179;48.776;9.124;2024-03-23T10:23:44;96912.56;;;8.99;100.00
55914;BME280;58179;48.776;9.124;2024-03-23T10:26:18;96923.88;;;8.95;100.00
55914;BME280;58179;48.776;9.124;2024-03-23T10:28:58;96913.59;;;8.98;100.00
55914;BME280;58179;48.776;9.124;2024-03-23T10:31:27;96921.03;;;9.01;100.00
55914;BME280;58179;48.776;9.124;2024-03-23T10:33:53;96915.16;;;8.94;100.00
55914;BME280;58179;48.776;9.124;2024-03-23T10:36:20;96915.34;;;8.87;100.00
55914;BME280;58179;48.776;9.124;2024-03-23T10:38:49;96912.03;;;9.02;100.00
55914;BME280;58179;48.776;9.124;2024-03-23T10:41:16;96907.38;;;9.09;100.00
55914;BME280;58179;48.776;9.124;2024-03-23T10:43:44;96920.81;;;9.08;100.00
55914;BME280;58179;48.776;9.124;2024-03-23T10:46:11;96911.88;;;8.82;100.00
55914;BME280;58179;48.776;9.124;2024-03-23T10:48:37;96939.63;;;8.58;100.00
55914;BME280;58179;48.776;9.124;2024-03-23T10:51:05;96951.56;;;8.38;100.00
55914;BME280;58179;48.776;9.124;2024-03-23T10:53:34;96955.47;;;8.14;100.00
55914;BME280;58179;48.776;9.124;2024-03-23T10:56:01;96997.81;;;7.86;100.00
55914;BME280;58179;48.776;9.124;2024-03-23T10:58:30;97014.94;;;7.33;100.00
55914;BME280;58179;48.776;9.124;2024-03-23T11:00:57;97034.31;;;6.82;100.00
55914;BME280;58179;48.776;9.124;2024-03-23T11:03:31;97031.09;;;6.23;100.00
55914;BME280;58179;48.776;9.124;2024-03-23T11:05:58;97023.22;;;6.00;100.00
55914;BME280;58179;48.776;9.124;2024-03-23T11:08:34;97015.00;;;5.84;100.00
55914;BME280;58179;48.776;9.124;2024-03-23T11:11:19;97003.13;;;6.05;100.00
55914;BME280;58179;48.776;9.124;2024-03-23T11:13:48;97007.13;;;6.76;100.00
55914;BME280;58179;48.776;9.124;2024-03-23T11:16:22;97005.19;;;7.50;100.00
55914;BME280;58179;48.776;9.124;2024-03-23T11:18:50;96995.00;;;8.14;100.00
55914;BME280;58179;48.776;9.124;2024-03-23T11:24:16;96985.38;;;8.95;100.00
55914;BME280;58179;48.776;9.124;2024-03-23T11:26:43;96988.13;;;9.37;100.00
55914;BME280;58179;48.776;9.124;2024-03-23T11:29:10;96991.34;;;9.86;100.00
55914;BME280;58179;48.776;9.124;2024-03-23T11:31:37;96994.53;;;9.88;100.00
55914;BME280;58179;48.776;9.124;2024-03-23T11:34:05;96984.44;;;9.80;100.00
55914;BME280;58179;48.776;9.124;2024-03-23T11:36:32;96983.41;;;9.86;100.00
55914;BME280;58179;48.776;9.124;2024-03-23T11:38:58;96976.09;;;10.66;100.00
55914;BME280;58179;48.776;9.124;2024-03-23T11:41:24;96979.59;;;11.68;100.00
55914;BME280;58179;48.776;9.124;2024-03-23T11:43:52;96956.69;;;12.12;100.00
55914;BME280;58179;48.776;9.124;2024-03-23T11:46:22;96956.50;;;12.63;100.00
55914;BME280;58179;48.776;9.124;2024-03-23T11:48:50;96953.03;;;13.01;100.00
55914;BME280;58179;48.776;9.124;2024-03-23T11:51:19;96941.22;;;13.23;100.00
55914;BME280;58179;48.776;9.124;2024-03-23T11:53:45;96938.69;;;12.58;100.00
55914;BME280;58179;48.776;9.124;2024-03-23T11:56:12;96940.59;;;11.93;100.00
55914;BME280;58179;48.776;9.124;2024-03-23T11:58:38;96944.06;;;11.58;100.00
55914;BME280;58179;48.776;9.124;2024-03-23T12:01:10;96929.28;;;11.32;100.00
55914;BME280;58179;48.776;9.124;2024-03-23T12:03:37;96935.91;;;10.89;100.00
55914;BME280;58179;48.776;9.124;2024-03-23T12:06:04;96938.00;;;10.77;100.00
55914;BME280;58179;48.776;9.124;2024-03-23T12:08:32;96932.41;;;10.63;100.00
55914;BME280;58179;48.776;9.124;2024-03-23T12:11:06;96933.13;;;10.33;100.00
55914;BME280;58179;48.776;9.124;2024-03-23T12:13:32;96935.22;;;10.26;100.00
55914;BME280;58179;48.776;9.124;2024-03-23T12:16:11;96934.59;;;9.99;100.00
55914;BME280;58179;48.776;9.124;2024-03-23T12:18:38;96935.78;;;9.76;100.00
55914;BME280;58179;48.776;9.124;2024-03-23T12:21:06;96943.66;;;9.71;100.00
55914;BME280;58179;48.776;9.124;2024-03-23T12:23:33;96940.50;;;9.69;100.00
55914;BME280;58179;48.776;9.124;2024-03-23T12:25:59;96936.69;;;9.55;100.00
55914;BME280;58179;48.776;9.124;2024-03-23T12:28:25;96930.38;;;9.56;100.00
55914;BME280;58179;48.776;9.124;2024-03-23T12:30:52;96935.13;;;10.06;100.00
55914;BME280;58179;48.776;9.124;2024-03-23T12:33:20;96927.41;;;10.72;100.00
55914;BME280;58179;48.776;9.124;2024-03-23T12:35:47;96918.16;;;11.10;100.00
55914;BME280;58179;48.776;9.124;2024-03-23T12:38:13;96922.91;;;11.13;100.00
55914;BME280;58179;48.776;9.124;2024-03-23T12:40:39;96924.78;;;10.82;100.00
55914;BME280;58179;48.776;9.124;2024-03-23T12:43:05;96931.59;;;10.47;100.00
55914;BME280;58179;48.776;9.124;2024-03-23T12:45:31;96932.50;;;10.16;100.00
55914;BME280;58179;48.776;9.124;2024-03-23T12:47:57;96948.47;;;9.79;100.00
55914;BME280;58179;48.776;9.124;2024-03-23T12:50:25;96941.94;;;9.45;100.00
55914;BME280;58179;48.776;9.124;2024-03-23T12:52:51;96947.00;;;9.14;100.00
55914;BME280;58179;48.776;9.124;2024-03-23T12:55:17;96942.63;;;8.98;100.00
55914;BME280;58179;48.776;9.124;2024-03-23T12:57:44;96942.88;;;9.28;100.00
55914;BME280;58179;48.776;9.124;2024-03-23T13:00:11;96930.78;;;10.42;100.00
55914;BME280;58179;48.776;9.124;2024-03-23T13:02:37;96916.50;;;11.64;100.00
55914;BME280;58179;48.776;9.124;2024-03-23T13:05:05;96900.19;;;13.00;100.00
55914;BME280;58179;48.776;9.124;2024-03-23T13:07:33;96915.72;;;14.22;100.00
55914;BME280;58179;48.776;9.124;2024-03-23T13:09:59;96897.94;;;14.36;100.00
55914;BME280;58179;48.776;9.124;2024-03-23T13:12:25;96896.16;;;13.89;100.00
55914;BME280;58179;48.776;9.124;2024-03-23T13:14:51;96896.50;;;13.82;100.00
55914;BME280;58179;48.776;9.124;2024-03-23T13:17:18;96893.09;;;13.77;100.00
55914;BME280;58179;48.776;9.124;2024-03-23T13:19:44;96904.53;;;12.86;100.00
55914;BME280;58179;48.776;9.124;2024-03-23T13:22:10;96895.81;;;12.36;100.00
55914;BME280;58179;48.776;9.124;2024-03-23T13:24:39;96896.53;;;12.02;100.00
55914;BME280;58179;48.776;9.124;2024-03-23T13:27:05;96907.94;;;11.98;100.00
55914;BME280;58179;48.776;9.124;2024-03-23T13:29:34;96901.94;;;11.52;100.00
55914;BME280;58179;48.776;9.124;2024-03-23T13:32:06;96873.66;;;11.17;100.00
55914;BME280;58179;48.776;9.124;2024-03-23T13:34:32;96868.66;;;10.95;100.00
55914;BME280;58179;48.776;9.124;2024-03-23T13:37:02;96860.69;;;10.70;100.00
55914;BME280;58179;48.776;9.124;2024-03-23T13:39:30;96863.31;;;11.25;100.00
55914;BME280;58179;48.776;9.124;2024-03-23T13:41:57;96857.59;;;12.37;100.00
55914;BME280;58179;48.776;9.124;2024-03-23T13:44:23;96874.44;;;13.29;100.00
55914;BME280;58179;48.776;9.124;2024-03-23T13:46:50;96852.44;;;15.07;100.00
55914;BME280;58179;48.776;9.124;2024-03-23T13:49:26;96856.28;;;16.02;100.00
55914;BME280;58179;48.776;9.124;2024-03-23T13:51:53;96851.13;;;16.19;100.00
55914;BME280;58179;48.776;9.124;2024-03-23T13:54:19;96844.69;;;16.56;100.00